createdAt,value
2022-10-28T00:03:12.142Z,21.93
2022-10-28T00:08:34.578Z,17.50
2022-10-28T00:13:59.508Z,20.12
2022-10-28T00:19:24.801Z,19.17
2022-10-28T00:24:47.220Z,22.62
2022-10-28T00:30:09.635Z,23.22
2022-10-28T00:35:31.868Z,24.05
2022-10-28T00:40:54.576Z,24.15
2022-10-28T00:46:28.103Z,24.70
2022-10-28T00:51:53.128Z,22.90
2022-10-28T00:57:19.183Z,20.43
2022-10-28T01:02:43.517Z,21.12
2022-10-28T01:08:09.233Z,19.75
2022-10-28T01:14:01.622Z,19.07
2022-10-28T01:20:10.808Z,18.23
2022-10-28T01:25:47.204Z,17.27
2022-10-28T01:31:32.378Z,18.07
2022-10-28T01:37:32.920Z,17.23
2022-10-28T01:43:17.884Z,17.57
2022-10-28T01:48:59.657Z,19.07
2022-10-28T01:54:26.045Z,20.00
2022-10-28T01:59:51.017Z,17.87
2022-10-28T02:05:34.555Z,16.23
2022-10-28T02:11:06.981Z,16.67
2022-10-28T02:17:02.725Z,16.63
2022-10-28T02:22:59.233Z,17.37
2022-10-28T02:28:29.248Z,16.73
2022-10-28T02:34:05.974Z,17.23
2022-10-28T02:39:39.389Z,17.57
2022-10-28T02:45:12.362Z,17.17
2022-10-28T02:50:41.621Z,20.90
2022-10-28T02:56:07.410Z,19.57
2022-10-28T03:01:29.636Z,19.23
2022-10-28T03:06:52.739Z,20.17
2022-10-28T03:12:15.433Z,21.90
2022-10-28T03:17:37.573Z,20.07
2022-10-28T03:23:02.228Z,18.50
2022-10-28T03:28:24.750Z,19.27
2022-10-28T03:33:47.249Z,18.17
2022-10-28T03:39:09.842Z,18.23
2022-10-28T03:44:31.975Z,19.07
2022-10-28T03:49:54.113Z,20.60
2022-10-28T03:55:16.343Z,20.53
2022-10-28T04:00:39.572Z,19.37
2022-10-28T04:06:02.176Z,19.37
2022-10-28T04:11:24.778Z,17.90
2022-10-28T04:16:46.952Z,18.27
2022-10-28T04:22:09.950Z,17.77
2022-10-28T04:27:32.162Z,18.33
2022-10-28T04:32:55.171Z,18.98
2022-10-28T04:38:18.236Z,18.73
2022-10-28T04:43:40.885Z,19.37
2022-10-28T04:49:04.621Z,19.98
2022-10-28T04:54:28.815Z,19.67
2022-10-28T04:59:51.024Z,20.43
2022-10-28T05:05:14.390Z,20.30
2022-10-28T05:10:37.179Z,21.90
2022-10-28T05:16:02.646Z,20.32
2022-10-28T05:21:24.900Z,22.22
2022-10-28T05:26:47.574Z,24.87
2022-10-28T05:32:09.795Z,23.80
2022-10-28T05:37:31.946Z,24.43
2022-10-28T05:42:56.136Z,24.70
2022-10-28T05:48:18.579Z,24.05
2022-10-28T05:53:42.474Z,24.63
2022-10-28T05:59:04.617Z,25.57
2022-10-28T06:04:27.334Z,28.77
2022-10-28T06:09:51.071Z,31.20
2022-10-28T06:15:12.762Z,32.73
2022-10-28T06:20:35.259Z,28.47
2022-10-28T06:25:59.267Z,28.47
2022-10-28T06:31:23.429Z,27.73
2022-10-28T06:36:45.576Z,30.20
2022-10-28T06:42:07.721Z,29.27
2022-10-28T06:47:32.101Z,31.48
2022-10-28T06:52:54.257Z,33.35
2022-10-28T06:58:21.332Z,33.70
2022-10-28T07:03:44.954Z,33.80
2022-10-28T07:09:07.117Z,35.48
2022-10-28T07:14:30.150Z,37.85
2022-10-28T07:19:52.294Z,36.27
2022-10-28T07:25:15.427Z,35.77
2022-10-28T07:30:38.791Z,51.43
2022-10-28T07:36:01.148Z,40.58
2022-10-28T07:41:25.246Z,37.67
2022-10-28T07:46:47.536Z,37.50
2022-10-28T07:52:09.829Z,37.63
2022-10-28T07:57:32.566Z,35.00
2022-10-28T08:02:54.756Z,35.23
2022-10-28T08:08:17.121Z,30.30
2022-10-28T08:13:40.279Z,28.60
2022-10-28T08:19:07.521Z,28.42
2022-10-28T08:24:26.994Z,28.30
2022-10-28T08:29:49.267Z,29.30
2022-10-28T08:35:12.202Z,29.30
2022-10-28T08:40:37.689Z,29.87
2022-10-28T08:46:20.006Z,32.20
2022-10-28T08:51:52.504Z,32.10
2022-10-28T08:57:19.700Z,31.60
2022-10-28T09:02:47.321Z,32.08
2022-10-28T09:08:31.539Z,34.27
2022-10-28T09:14:28.465Z,34.37
2022-10-28T09:20:13.514Z,35.30
2022-10-28T09:26:21.885Z,34.47
2022-10-28T09:37:41.971Z,27.43
2022-10-28T09:43:29.743Z,30.83
2022-10-28T09:49:03.147Z,27.60
2022-10-28T09:54:28.602Z,26.67
2022-10-28T09:59:51.280Z,25.17
2022-10-28T10:05:20.202Z,23.45
2022-10-28T10:11:05.173Z,21.57
2022-10-28T10:16:32.511Z,20.27
2022-10-28T10:22:03.503Z,18.67
2022-10-28T10:27:32.899Z,17.45
2022-10-28T10:32:57.044Z,16.17
2022-10-28T10:38:36.734Z,19.07
2022-10-28T10:43:59.249Z,22.80
2022-10-28T10:49:24.685Z,22.63
2022-10-28T10:54:52.000Z,23.95
2022-10-28T11:00:18.007Z,22.70
2022-10-28T11:05:42.783Z,16.60
2022-10-28T11:11:19.212Z,15.00
2022-10-28T11:16:59.197Z,15.15
2022-10-28T11:22:54.102Z,15.10
2022-10-28T11:28:54.810Z,14.23
2022-10-28T11:34:28.038Z,14.33
2022-10-28T11:40:11.090Z,15.53
2022-10-28T11:46:01.689Z,15.57
2022-10-28T11:52:05.258Z,16.07
2022-10-28T11:57:41.378Z,15.28
2022-10-28T12:03:38.306Z,16.10
2022-10-28T12:09:27.647Z,16.73
2022-10-28T12:15:25.092Z,15.95
2022-10-28T12:21:16.269Z,16.15
2022-10-28T12:26:49.009Z,15.28
2022-10-28T12:32:29.709Z,18.27
2022-10-28T12:37:59.663Z,16.67
2022-10-28T12:43:49.875Z,18.40
2022-10-28T12:49:22.310Z,20.23
2022-10-28T12:55:01.340Z,21.48
2022-10-28T13:00:32.583Z,21.30
2022-10-28T13:06:38.529Z,19.20
2022-10-28T13:12:08.079Z,14.63
2022-10-28T13:17:59.797Z,14.07
2022-10-28T13:23:58.967Z,14.87
2022-10-28T13:29:34.321Z,12.95
2022-10-28T13:34:58.930Z,12.13
2022-10-28T13:40:24.321Z,12.70
2022-10-28T13:46:08.100Z,12.58
2022-10-28T13:51:35.591Z,11.95
2022-10-28T13:57:00.837Z,12.40
2022-10-28T14:02:48.970Z,11.05
2022-10-28T14:08:47.089Z,12.17
2022-10-28T14:14:12.975Z,12.28
2022-10-28T14:19:36.795Z,11.35
2022-10-28T14:25:00.662Z,10.35
2022-10-28T14:30:27.884Z,10.23
2022-10-28T14:35:55.324Z,10.82
2022-10-28T14:41:43.478Z,10.50
2022-10-28T14:47:16.831Z,10.30
2022-10-28T14:52:41.762Z,10.68
2022-10-28T14:58:22.507Z,11.43
2022-10-28T15:04:09.476Z,10.80
2022-10-28T15:09:45.872Z,9.80
2022-10-28T15:15:44.300Z,10.30
2022-10-28T15:21:24.048Z,11.60
2022-10-28T15:26:46.327Z,11.73
2022-10-28T15:32:30.203Z,12.07
2022-10-28T15:37:54.631Z,12.18
2022-10-28T15:43:33.431Z,11.63
2022-10-28T15:49:00.635Z,12.53
2022-10-28T15:54:32.524Z,13.87
2022-10-28T16:14:01.467Z,20.83
2022-10-28T16:19:36.521Z,21.33
2022-10-28T16:24:59.947Z,25.43
2022-10-28T16:30:41.855Z,20.67
2022-10-28T16:36:21.996Z,19.93
2022-10-28T16:41:44.528Z,14.65
2022-10-28T16:47:06.708Z,12.83
2022-10-28T16:52:35.855Z,13.60
2022-10-28T16:57:58.139Z,15.03
2022-10-28T17:03:38.134Z,15.27
2022-10-28T17:09:03.520Z,19.35
2022-10-28T17:14:24.896Z,17.00
2022-10-28T17:19:47.142Z,19.42
2022-10-28T17:25:10.422Z,27.13
2022-10-28T17:30:34.042Z,17.02
2022-10-28T17:36:17.381Z,27.13
2022-10-28T17:41:39.621Z,62.50
2022-10-28T17:47:02.035Z,20.87
2022-10-28T17:52:41.645Z,44.17
2022-10-28T17:58:21.239Z,25.17
2022-10-28T18:03:44.614Z,25.17
2022-10-28T18:09:07.926Z,19.25
2022-10-28T18:14:30.640Z,19.12
2022-10-28T18:20:10.147Z,22.87
2022-10-28T18:25:32.713Z,17.60
2022-10-28T18:30:54.893Z,18.70
2022-10-28T18:36:26.784Z,19.50
2022-10-28T18:41:51.619Z,22.27
2022-10-28T18:47:14.301Z,23.25
2022-10-28T18:52:53.989Z,20.70
2022-10-28T18:58:16.477Z,20.17
2022-10-28T19:03:42.718Z,19.17
2022-10-28T19:09:22.880Z,18.67
2022-10-28T19:15:03.333Z,19.17
2022-10-28T19:20:25.780Z,18.10
2022-10-28T19:25:47.918Z,16.17
2022-10-28T19:31:14.858Z,15.38
2022-10-28T19:36:39.514Z,15.37
2022-10-28T19:42:01.693Z,15.93
2022-10-28T19:47:23.855Z,14.70
2022-10-28T19:52:48.635Z,15.27
2022-10-28T19:58:10.833Z,18.10
2022-10-28T20:03:50.786Z,15.63
2022-10-28T20:09:13.664Z,14.80
2022-10-28T20:14:53.322Z,14.80
2022-10-28T20:20:16.597Z,15.72
2022-10-28T20:25:38.756Z,14.18
2022-10-28T20:31:03.876Z,16.30
2022-10-28T20:36:49.228Z,14.33
2022-10-28T20:42:11.376Z,12.77
2022-10-28T20:47:33.519Z,11.97
2022-10-28T20:52:56.514Z,13.70
2022-10-28T20:58:19.374Z,14.93
2022-10-28T21:03:41.543Z,16.10
2022-10-28T21:09:05.599Z,13.50
2022-10-28T21:14:27.893Z,14.77
2022-10-28T21:19:50.118Z,13.18
2022-10-28T21:25:13.137Z,13.53
2022-10-28T21:30:52.519Z,13.27
2022-10-28T21:36:21.953Z,13.93
2022-10-28T21:41:44.164Z,13.40
2022-10-28T21:47:06.484Z,13.00
2022-10-28T21:52:28.673Z,13.63
2022-10-28T21:58:09.051Z,13.07
2022-10-28T22:03:32.336Z,13.25
2022-10-28T22:08:55.439Z,12.40
2022-10-28T22:14:35.466Z,13.33
2022-10-28T22:20:00.389Z,11.97
2022-10-28T22:25:23.384Z,11.70
2022-10-28T22:31:07.275Z,12.67
2022-10-28T22:36:33.499Z,12.25
2022-10-28T22:41:55.696Z,11.73
2022-10-28T22:47:35.171Z,11.87
2022-10-28T22:52:58.299Z,11.90
2022-10-28T22:58:20.539Z,11.50
2022-10-28T23:03:48.815Z,10.80
2022-10-28T23:09:11.929Z,10.72
2022-10-28T23:14:51.510Z,11.60
2022-10-28T23:20:13.733Z,11.15
2022-10-28T23:25:36.354Z,11.90
2022-10-28T23:31:21.366Z,11.83
2022-10-28T23:36:43.614Z,11.12
2022-10-28T23:42:06.815Z,10.30
2022-10-28T23:47:28.975Z,10.47
2022-10-28T23:52:51.244Z,11.10
2022-10-28T23:58:15.020Z,11.50
